Time;durP1;ratioP1;P1;durP2;ratioP2;P2;SDS_P1;SDS_P2;PMS_P1;PMS_P2;Temp;Humidity;BMP_temperature;BMP_pressure;BME280_temperature;BME280_humidity;BME280_pressure;Samples;Min_cycle;Max_cycle;Signal;HPM_P1;HPM_P2
2022/05/14 00:01:07;;;;;;;;;;;;;;;10.79;97.74;98916.38;1698986;84;20174;-72
2022/05/14 00:03:34;;;;;;;;;;;;;;;10.76;98.05;98912.92;1699073;84;20219;-72
2022/05/14 00:06:05;;;;;;;;;;;;;;;10.72;98.02;98911.98;1699179;84;20194;-72
2022/05/14 00:08:33;;;;;;;;;;;;;;;10.69;98.15;98911.27;1698992;84;20182;-72
2022/05/14 00:13:45;;;;;;;;;;;;;;;10.63;98.41;98916.14;1699043;84;20230;-72
2022/05/14 00:16:12;;;;;;;;;;;;;;;10.57;98.59;98912.78;1699029;84;20130;-72
2022/05/14 00:18:38;;;;;;;;;;;;;;;10.54;98.94;98915.38;1698995;84;20199;-72
2022/05/14 00:21:05;;;;;;;;;;;;;;;10.51;99.18;98918.22;1699109;84;20554;-72
2022/05/14 00:23:31;;;;;;;;;;;;;;;10.48;99.23;98913.39;1698854;84;20139;-71
2022/05/14 00:25:57;;;;;;;;;;;;;;;10.46;99.27;98909.37;1699045;84;20175;-71
2022/05/14 00:28:23;;;;;;;;;;;;;;;10.42;99.28;98905.11;1698838;84;20465;-72
2022/05/14 00:30:50;;;;;;;;;;;;;;;10.39;99.62;98903.05;1698628;84;20174;-71
2022/05/14 00:33:16;;;;;;;;;;;;;;;10.38;100.00;98902.01;1749273;82;22921;-72
2022/05/14 00:35:43;;;;;;;;;;;;;;;10.36;100.00;98896.85;1749428;81;20157;-72
2022/05/14 00:38:09;;;;;;;;;;;;;;;10.36;100.00;98898.79;1749513;82;20154;-72
2022/05/14 00:40:48;;;;;;;;;;;;;;;10.35;100.00;98894.44;1749357;82;20079;-72
2022/05/14 00:43:15;;;;;;;;;;;;;;;10.36;100.00;98895.48;1749393;81;20170;-72
2022/05/14 00:45:45;;;;;;;;;;;;;;;10.37;100.00;98899.83;1749313;82;22037;-72
2022/05/14 00:48:12;;;;;;;;;;;;;;;10.37;100.00;98900.40;1749423;82;20106;-73
2022/05/14 00:50:44;;;;;;;;;;;;;;;10.37;100.00;98892.17;1749345;82;20497;-72
2022/05/14 00:53:15;;;;;;;;;;;;;;;10.37;100.00;98886.11;1749318;82;20118;-72
2022/05/14 00:55:43;;;;;;;;;;;;;;;10.37;100.00;98879.25;1748998;82;20145;-72
2022/05/14 00:58:10;;;;;;;;;;;;;;;10.39;100.00;98883.84;1749328;81;21215;-72
2022/05/14 01:00:37;;;;;;;;;;;;;;;10.40;100.00;98882.68;1749342;82;20458;-72
2022/05/14 01:03:05;;;;;;;;;;;;;;;10.43;100.00;98882.02;1726182;82;20195;-72
2022/05/14 01:05:32;;;;;;;;;;;;;;;10.46;100.00;98875.06;1749346;82;20122;-72
2022/05/14 01:08:01;;;;;;;;;;;;;;;10.49;100.00;98875.20;1749501;81;20190;-71
2022/05/14 01:10:32;;;;;;;;;;;;;;;10.54;100.00;98875.59;1749455;81;21199;-72
2022/05/14 01:13:00;;;;;;;;;;;;;;;10.52;100.00;98871.00;1749371;82;37618;-72
2022/05/14 01:15:40;;;;;;;;;;;;;;;10.49;100.00;98871.09;1749398;82;20142;-72
2022/05/14 01:18:07;;;;;;;;;;;;;;;10.47;100.00;98867.88;1747898;82;21191;-72
2022/05/14 01:20:35;;;;;;;;;;;;;;;10.47;100.00;98869.25;1749338;82;20186;-72
2022/05/14 01:23:12;;;;;;;;;;;;;;;10.45;100.00;98864.66;1749443;82;21752;-72
2022/05/14 01:28:43;;;;;;;;;;;;;;;10.40;100.00;98866.22;1749498;81;20454;-73
2022/05/14 01:31:10;;;;;;;;;;;;;;;10.41;100.00;98865.08;1749049;82;20110;-73
2022/05/14 01:33:37;;;;;;;;;;;;;;;10.43;100.00;98864.75;1749173;82;20178;-72
2022/05/14 01:36:06;;;;;;;;;;;;;;;10.45;100.00;98872.89;1748911;82;21128;-72
2022/05/14 01:38:33;;;;;;;;;;;;;;;10.45;100.00;98877.00;1749061;80;20091;-72
2022/05/14 01:41:00;;;;;;;;;;;;;;;10.43;100.00;98877.91;1749015;82;20150;-72
2022/05/14 01:43:28;;;;;;;;;;;;;;;10.41;100.00;98875.25;1749045;82;20111;-73
2022/05/14 01:45:55;;;;;;;;;;;;;;;10.39;100.00;98872.06;1748948;82;20505;-73
2022/05/14 01:48:22;;;;;;;;;;;;;;;10.36;100.00;98868.05;1748989;82;21072;-72
2022/05/14 01:50:49;;;;;;;;;;;;;;;10.36;100.00;98879.02;1748929;82;20087;-73
2022/05/14 01:53:16;;;;;;;;;;;;;;;10.36;100.00;98874.09;1749363;82;20365;-72
2022/05/14 01:55:43;;;;;;;;;;;;;;;10.34;100.00;98868.94;1749013;82;20194;-73
2022/05/14 02:00:56;;;;;;;;;;;;;;;10.26;100.00;98875.27;1748851;82;21255;-73
2022/05/14 02:03:23;;;;;;;;;;;;;;;10.24;100.00;98876.17;1748954;82;20087;-72
2022/05/14 02:05:51;;;;;;;;;;;;;;;10.22;100.00;98872.37;1749017;82;20102;-72
2022/05/14 02:08:18;;;;;;;;;;;;;;;10.21;100.00;98873.52;1748969;82;20135;-72
2022/05/14 02:10:44;;;;;;;;;;;;;;;10.20;100.00;98880.70;1748880;80;20191;-72
2022/05/14 02:13:12;;;;;;;;;;;;;;;10.17;100.00;98878.02;1749019;82;21112;-72
2022/05/14 02:15:43;;;;;;;;;;;;;;;10.21;100.00;98870.77;1748881;82;20434;-71
2022/05/14 02:18:16;;;;;;;;;;;;;;;10.29;100.00;98859.52;1723528;82;20158;-71
2022/05/14 02:20:45;;;;;;;;;;;;;;;10.34;100.00;98864.02;1749458;82;20119;-71
2022/05/14 02:23:17;;;;;;;;;;;;;;;10.38;100.00;98869.08;1747476;82;20111;-72
2022/05/14 02:25:44;;;;;;;;;;;;;;;10.42;100.00;98872.75;1749199;82;21331;-72
2022/05/14 02:28:14;;;;;;;;;;;;;;;10.44;100.00;98867.16;1749326;82;20115;-72
2022/05/14 02:30:41;;;;;;;;;;;;;;;10.49;100.00;98866.98;1714190;83;20078;-72
2022/05/14 02:33:10;;;;;;;;;;;;;;;10.54;100.00;98872.28;1714203;82;20170;-72
2022/05/14 02:35:47;;;;;;;;;;;;;;;10.61;100.00;98870.38;1714358;83;20109;-72
2022/05/14 02:38:15;;;;;;;;;;;;;;;10.66;100.00;98868.81;1713867;83;22218;-72
2022/05/14 02:40:49;;;;;;;;;;;;;;;10.69;100.00;98867.34;1711795;83;20350;-72
2022/05/14 02:43:21;;;;;;;;;;;;;;;10.73;100.00;98865.55;1715404;82;20113;-73
2022/05/14 02:45:52;;;;;;;;;;;;;;;10.74;100.00;98863.04;1703227;83;20086;-73
2022/05/14 02:48:21;;;;;;;;;;;;;;;10.73;100.00;98863.61;1719194;83;20148;-73
2022/05/14 02:50:51;;;;;;;;;;;;;;;10.75;100.00;98860.53;1693136;83;20152;-73
2022/05/14 02:53:17;;;;;;;;;;;;;;;10.75;100.00;98861.91;1694067;83;20425;-73
2022/05/14 02:55:45;;;;;;;;;;;;;;;10.79;100.00;98856.78;1719621;83;20124;-73
2022/05/14 02:59:06;;;;;;;;;;;;;;;10.81;100.00;98849.02;1670894;85;20137;-73
2022/05/14 03:00:45;;;;;;;;;;;;;;;10.83;100.00;98842.63;1715684;83;20517;-73
2022/05/14 03:03:12;;;;;;;;;;;;;;;10.85;100.00;98847.21;1687372;84;21167;-73
2022/05/14 03:05:41;;;;;;;;;;;;;;;10.88;100.00;98847.92;1719621;83;20573;-72
2022/05/14 03:08:14;;;;;;;;;;;;;;;10.89;100.00;98848.16;1694997;83;20073;-72
2022/05/14 03:10:45;;;;;;;;;;;;;;;10.91;100.00;98855.48;1721425;80;20449;-72
2022/05/14 03:13:17;;;;;;;;;;;;;;;10.95;100.00;98854.82;1749704;81;20106;-72
2022/05/14 03:15:45;;;;;;;;;;;;;;;10.97;100.00;98861.59;1739720;82;22064;-72
2022/05/14 03:18:12;;;;;;;;;;;;;;;11.01;100.00;98848.77;1715210;83;20095;-72
2022/05/14 03:20:40;;;;;;;;;;;;;;;11.06;100.00;98851.88;1749087;82;20170;-72
2022/05/14 03:23:11;;;;;;;;;;;;;;;11.14;100.00;98852.38;1749681;82;20114;-72
2022/05/14 03:25:45;;;;;;;;;;;;;;;11.24;100.00;98856.89;1749903;82;20426;-73
2022/05/14 03:28:13;;;;;;;;;;;;;;;11.43;100.00;98856.97;1748907;82;21246;-73
2022/05/14 03:30:42;;;;;;;;;;;;;;;11.66;100.00;98855.42;1749311;82;20118;-72
2022/05/14 03:33:08;;;;;;;;;;;;;;;11.90;100.00;98855.52;1748134;81;20167;-72
2022/05/14 03:35:35;;;;;;;;;;;;;;;12.10;100.00;98857.15;1717210;81;20097;-73
2022/05/14 03:38:03;;;;;;;;;;;;;;;12.28;100.00;98862.64;1717012;83;20125;-73
2022/05/14 03:40:29;;;;;;;;;;;;;;;12.43;100.00;98855.65;1704298;84;20508;-73
2022/05/14 03:42:56;;;;;;;;;;;;;;;12.54;100.00;98863.11;1703808;84;20077;-73
2022/05/14 03:45:22;;;;;;;;;;;;;;;12.65;100.00;98859.31;1709301;82;20145;-73
2022/05/14 03:47:49;;;;;;;;;;;;;;;12.76;100.00;98862.37;1735542;82;20084;-72
2022/05/14 03:50:16;;;;;;;;;;;;;;;12.85;100.00;98855.58;1734269;82;20089;-72
2022/05/14 03:52:42;;;;;;;;;;;;;;;12.93;100.00;98851.09;1751506;82;21134;-72
2022/05/14 03:55:09;;;;;;;;;;;;;;;13.00;100.00;98855.44;1751666;82;20423;-72
2022/05/14 03:57:36;;;;;;;;;;;;;;;13.08;100.00;98847.61;1751451;82;20166;-74
2022/05/14 04:00:07;;;;;;;;;;;;;;;13.15;100.00;98850.58;1751798;82;20091;-73
2022/05/14 04:02:36;;;;;;;;;;;;;;;13.21;100.00;98851.97;1751108;82;20082;-73
2022/05/14 04:05:04;;;;;;;;;;;;;;;13.29;99.03;98853.52;1751617;81;21190;-73
2022/05/14 04:07:30;;;;;;;;;;;;;;;13.34;98.18;98847.18;1751677;81;20434;-73
2022/05/14 04:09:57;;;;;;;;;;;;;;;13.40;97.33;98860.14;1751674;82;20095;-73
2022/05/14 04:12:27;;;;;;;;;;;;;;;13.44;96.76;98867.94;1751743;82;20082;-72
2022/05/14 04:14:53;;;;;;;;;;;;;;;13.49;95.65;98868.48;1751874;82;20094;-75
2022/05/14 04:17:20;;;;;;;;;;;;;;;13.54;95.28;98862.72;1751832;81;21766;-75
2022/05/14 04:19:46;;;;;;;;;;;;;;;13.58;93.88;98860.06;1751927;80;20492;-75
2022/05/14 04:22:13;;;;;;;;;;;;;;;13.61;93.68;98873.15;1751674;82;20110;-75
2022/05/14 04:24:39;;;;;;;;;;;;;;;13.67;93.27;98874.50;1751514;81;20095;-75
2022/05/14 04:27:06;;;;;;;;;;;;;;;13.75;92.79;98874.92;1752211;81;20098;-74
2022/05/14 04:29:32;;;;;;;;;;;;;;;13.83;92.22;98880.86;1750064;82;21030;-75
2022/05/14 04:31:59;;;;;;;;;;;;;;;13.91;91.04;98883.77;1730748;83;20171;-74
2022/05/14 04:34:25;;;;;;;;;;;;;;;13.93;89.02;98886.98;1730566;82;20118;-75
2022/05/14 04:36:51;;;;;;;;;;;;;;;13.93;87.22;98880.89;1730693;82;20095;-74
2022/05/14 04:39:19;;;;;;;;;;;;;;;13.98;85.88;98887.53;1730667;82;20406;-74
2022/05/14 04:41:45;;;;;;;;;;;;;;;14.04;84.85;98889.45;1730653;83;21801;-74
2022/05/14 04:44:12;;;;;;;;;;;;;;;14.03;83.67;98892.78;1730482;83;20146;-74
2022/05/14 04:46:39;;;;;;;;;;;;;;;13.98;83.60;98899.95;1730738;83;20454;-74
2022/05/14 04:49:05;;;;;;;;;;;;;;;13.92;83.27;98894.45;1730896;81;20099;-74
2022/05/14 04:51:32;;;;;;;;;;;;;;;13.88;83.69;98895.73;1730738;82;20117;-74
2022/05/14 04:53:58;;;;;;;;;;;;;;;13.83;82.54;98902.13;1730626;83;21115;-74
2022/05/14 04:56:25;;;;;;;;;;;;;;;13.72;81.90;98901.02;1731030;83;20095;-74
2022/05/14 04:58:51;;;;;;;;;;;;;;;13.60;82.53;98904.64;1730965;83;20398;-74
2022/05/14 05:01:18;;;;;;;;;;;;;;;13.50;82.15;98905.94;1731090;83;20095;-75
2022/05/14 05:03:46;;;;;;;;;;;;;;;13.40;82.54;98905.05;1731192;83;20095;-75
2022/05/14 05:06:14;;;;;;;;;;;;;;;13.33;83.76;98905.42;1731109;83;21708;-74
2022/05/14 05:08:42;;;;;;;;;;;;;;;13.23;84.22;98909.50;1730935;83;20142;-74
2022/05/14 05:11:10;;;;;;;;;;;;;;;13.15;84.67;98909.02;1730663;83;20095;-74
2022/05/14 05:13:37;;;;;;;;;;;;;;;13.08;85.17;98906.05;1729780;83;20131;-74
2022/05/14 05:16:04;;;;;;;;;;;;;;;12.98;85.68;98905.95;1730986;82;20426;-78
2022/05/14 05:18:30;;;;;;;;;;;;;;;12.94;86.42;98912.50;1731210;82;21119;-74
2022/05/14 05:20:56;;;;;;;;;;;;;;;12.92;86.43;98908.72;1729411;82;20127;-71
2022/05/14 05:23:23;;;;;;;;;;;;;;;12.92;87.00;98909.29;1729562;82;20095;-76
2022/05/14 05:25:50;;;;;;;;;;;;;;;12.92;87.55;98910.67;1729764;83;20111;-79
2022/05/14 05:28:17;;;;;;;;;;;;;;;12.89;87.11;98908.03;1729706;82;20095;-79
2022/05/14 05:30:43;;;;;;;;;;;;;;;12.88;87.50;98910.55;1723062;82;20461;-74
2022/05/14 05:33:15;;;;;;;;;;;;;;;12.86;88.70;98905.39;1729719;82;20111;-75
2022/05/14 05:35:42;;;;;;;;;;;;;;;12.89;87.08;98908.03;1729866;83;20197;-71
2022/05/14 05:38:09;;;;;;;;;;;;;;;12.87;87.34;98902.06;1730754;83;20148;-73
2022/05/14 05:40:37;;;;;;;;;;;;;;;12.87;87.24;98897.36;1730804;83;20148;-73
2022/05/14 05:43:05;;;;;;;;;;;;;;;12.89;87.54;98892.88;1730664;83;21121;-69
2022/05/14 05:45:32;;;;;;;;;;;;;;;12.95;86.20;98888.73;1731077;83;20112;-72
2022/05/14 05:47:59;;;;;;;;;;;;;;;12.99;85.56;98892.41;1730769;83;20112;-74
2022/05/14 05:50:26;;;;;;;;;;;;;;;13.07;87.06;98896.18;1727691;81;20102;-75
2022/05/14 05:52:54;;;;;;;;;;;;;;;13.21;86.35;98891.13;1722070;82;20160;-79
2022/05/14 05:58:06;;;;;;;;;;;;;;;13.44;85.21;98889.99;1730200;81;20123;-88
2022/05/14 06:00:33;;;;;;;;;;;;;;;13.48;84.54;98887.56;1728450;81;20115;-76
2022/05/14 06:02:59;;;;;;;;;;;;;;;13.54;83.67;98886.73;1731033;83;20139;-83
2022/05/14 06:05:26;;;;;;;;;;;;;;;13.57;82.63;98884.66;1730617;83;20493;-75
2022/05/14 06:07:53;;;;;;;;;;;;;;;13.58;82.88;98889.02;1730815;83;21136;-76
2022/05/14 06:10:21;;;;;;;;;;;;;;;13.64;83.35;98895.89;1731116;82;20147;-82
2022/05/14 06:12:47;;;;;;;;;;;;;;;13.69;82.86;98892.88;1731078;82;20094;-86
2022/05/14 06:15:18;;;;;;;;;;;;;;;13.75;83.17;98897.56;1730918;83;20146;-83
2022/05/14 06:17:45;;;;;;;;;;;;;;;13.78;83.13;98894.91;1731045;82;20122;-80
2022/05/14 06:20:13;;;;;;;;;;;;;;;13.84;82.59;98897.63;1730998;81;21138;-80
2022/05/14 06:22:40;;;;;;;;;;;;;;;13.84;81.57;98906.48;1730942;82;20087;-77
2022/05/14 06:25:07;;;;;;;;;;;;;;;13.80;81.26;98906.97;1731117;82;20437;-83
2022/05/14 06:27:35;;;;;;;;;;;;;;;13.79;81.78;98909.50;1730849;83;20138;-78
2022/05/14 06:30:01;;;;;;;;;;;;;;;13.82;81.55;98917.88;1731062;82;20451;-75
2022/05/14 06:32:27;;;;;;;;;;;;;;;13.85;81.64;98926.83;1752592;82;21217;-74
2022/05/14 06:34:54;;;;;;;;;;;;;;;13.84;81.76;98921.08;1752426;82;20170;-74
2022/05/14 06:37:20;;;;;;;;;;;;;;;13.83;82.06;98925.58;1752534;82;20107;-74
2022/05/14 06:39:47;;;;;;;;;;;;;;;13.78;81.85;98925.25;1752524;82;20260;-74
2022/05/14 06:42:14;;;;;;;;;;;;;;;13.74;81.71;98935.38;1752464;82;20426;-74
2022/05/14 06:44:42;;;;;;;;;;;;;;;13.69;82.14;98935.63;1753875;82;21272;-75
2022/05/14 06:47:08;;;;;;;;;;;;;;;13.64;82.74;98939.21;1752646;82;20095;-75
2022/05/14 06:49:35;;;;;;;;;;;;;;;13.58;83.49;98939.23;1752489;82;20185;-74
2022/05/14 06:52:01;;;;;;;;;;;;;;;13.57;83.97;98934.30;1714430;83;20119;-77
2022/05/14 06:54:29;;;;;;;;;;;;;;;13.54;83.69;98948.20;1714494;83;20099;-76
2022/05/14 06:56:55;;;;;;;;;;;;;;;13.49;84.52;98949.02;1741561;81;21810;-83
2022/05/14 06:59:22;;;;;;;;;;;;;;;13.46;85.07;98949.14;1709879;83;20136;-82
2022/05/14 07:01:48;;;;;;;;;;;;;;;13.43;84.81;98949.84;1703951;84;20204;-79
2022/05/14 07:07:05;;;;;;;;;;;;;;;13.30;84.54;98949.64;1679959;85;20100;-75
2022/05/14 07:09:33;;;;;;;;;;;;;;;13.24;85.19;98959.34;1680043;85;20698;-74
2022/05/14 07:12:04;;;;;;;;;;;;;;;13.20;85.60;98963.94;1690176;82;20179;-76
2022/05/14 07:14:32;;;;;;;;;;;;;;;13.18;85.58;98962.10;1745957;82;20106;-74
2022/05/14 07:16:58;;;;;;;;;;;;;;;13.15;85.50;98963.56;1692237;83;20163;-79
2022/05/14 07:19:25;;;;;;;;;;;;;;;13.17;85.24;98968.77;1699075;83;20147;-77
2022/05/14 07:21:52;;;;;;;;;;;;;;;13.19;85.42;98968.64;1751724;81;21206;-74
2022/05/14 07:24:21;;;;;;;;;;;;;;;13.24;85.07;98975.88;1725061;82;20411;-71
2022/05/14 07:26:50;;;;;;;;;;;;;;;13.28;84.91;98980.92;1751171;82;20138;-72
2022/05/14 07:29:19;;;;;;;;;;;;;;;13.32;83.92;98981.00;1713103;84;20430;-76
2022/05/14 07:31:48;;;;;;;;;;;;;;;13.35;83.51;98991.33;1713345;82;20095;-72
2022/05/14 07:34:14;;;;;;;;;;;;;;;13.37;82.33;98995.34;1713180;82;22012;-78
2022/05/14 07:36:50;;;;;;;;;;;;;;;13.41;82.56;98994.08;1746424;82;20454;-77
2022/05/14 07:39:17;;;;;;;;;;;;;;;13.47;81.73;98998.20;1746417;82;20091;-77
2022/05/14 07:41:44;;;;;;;;;;;;;;;13.54;80.36;98997.04;1746653;82;20102;-73
2022/05/14 07:44:11;;;;;;;;;;;;;;;13.58;80.16;98999.33;1746483;82;20140;-83
2022/05/14 07:46:38;;;;;;;;;;;;;;;13.65;79.25;98995.98;1746260;82;21149;-77
2022/05/14 07:49:10;;;;;;;;;;;;;;;13.73;79.69;98997.22;1746506;82;20170;-82
2022/05/14 07:51:37;;;;;;;;;;;;;;;13.86;79.58;98995.22;1746419;82;20111;-81
2022/05/14 07:54:04;;;;;;;;;;;;;;;14.00;78.53;98999.73;1744641;81;20151;-83
2022/05/14 07:56:32;;;;;;;;;;;;;;;14.13;76.52;99001.29;1732303;81;20113;-74
2022/05/14 07:58:59;;;;;;;;;;;;;;;14.27;75.02;99000.88;1736917;82;21109;-78
2022/05/14 08:01:25;;;;;;;;;;;;;;;14.45;75.63;98997.22;1718211;83;20089;-75
2022/05/14 08:03:52;;;;;;;;;;;;;;;14.67;74.37;99009.05;1718232;83;20097;-76
2022/05/14 08:06:22;;;;;;;;;;;;;;;14.84;71.76;99010.66;1718261;83;20140;-74
2022/05/14 08:08:48;;;;;;;;;;;;;;;14.90;70.69;99002.32;1718637;83;20113;-77
2022/05/14 08:11:14;;;;;;;;;;;;;;;14.92;70.55;99013.02;1718283;83;21725;-80
2022/05/14 08:13:41;;;;;;;;;;;;;;;14.93;70.26;99009.89;1718174;83;20085;-77
2022/05/14 08:16:08;;;;;;;;;;;;;;;15.01;70.96;99006.15;1718288;83;20159;-79
2022/05/14 08:18:34;;;;;;;;;;;;;;;15.09;69.31;99003.75;1718389;83;20467;-80
2022/05/14 08:24:29;;;;;;;;;;;;;;;15.18;69.83;99008.51;1718224;82;20093;-75
2022/05/14 08:26:14;;;;;;;;;;;;;;;15.38;68.30;99008.56;1718109;83;20097;-74
2022/05/14 08:28:41;;;;;;;;;;;;;;;15.62;67.57;99012.47;1718210;83;20097;-74
2022/05/14 08:31:08;;;;;;;;;;;;;;;15.70;65.72;99001.78;1715684;83;20117;-74
2022/05/14 08:33:34;;;;;;;;;;;;;;;15.65;66.11;98997.11;1704847;84;20121;-80
2022/05/14 08:36:00;;;;;;;;;;;;;;;15.55;66.84;99004.02;1708797;83;22104;-76
2022/05/14 08:38:27;;;;;;;;;;;;;;;15.45;67.41;99004.00;1732459;83;20179;-72
2022/05/14 08:40:57;;;;;;;;;;;;;;;15.35;67.30;99007.31;1732481;83;20082;-72
2022/05/14 08:43:37;;;;;;;;;;;;;;;15.29;68.53;99006.57;1732348;83;20071;-72
2022/05/14 08:46:07;;;;;;;;;;;;;;;15.31;69.06;99005.63;1732488;83;20433;-72
2022/05/14 08:48:36;;;;;;;;;;;;;;;15.32;68.30;98999.74;1732552;83;21250;-73
2022/05/14 08:51:14;;;;;;;;;;;;;;;15.31;69.26;98997.34;1732482;83;20127;-73
2022/05/14 08:53:42;;;;;;;;;;;;;;;15.32;69.23;98998.36;1732647;83;20111;-73
2022/05/14 08:56:38;;;;;;;;;;;;;;;15.36;70.14;99002.59;1733945;83;20462;-72
2022/05/14 08:59:28;;;;;;;;;;;;;;;15.49;69.87;99013.76;1733360;83;20194;-73
2022/05/14 09:02:01;;;;;;;;;;;;;;;15.66;68.59;99009.20;1733639;82;21161;-72
2022/05/14 09:04:28;;;;;;;;;;;;;;;15.83;68.34;99007.39;1716904;83;20430;-72
2022/05/14 09:06:55;;;;;;;;;;;;;;;16.10;68.51;98999.23;1733873;83;20118;-72
2022/05/14 09:09:21;;;;;;;;;;;;;;;16.48;65.13;98996.39;1733807;82;20118;-72
2022/05/14 09:11:54;;;;;;;;;;;;;;;16.81;64.13;98999.14;1733813;83;20446;-74
2022/05/14 09:14:27;;;;;;;;;;;;;;;17.08;61.76;98999.98;1733640;83;21138;-72
2022/05/14 09:17:15;;;;;;;;;;;;;;;17.24;62.27;98993.70;1733718;83;20111;-73
2022/05/14 09:19:43;;;;;;;;;;;;;;;17.34;62.69;98997.19;1733666;81;20111;-73
2022/05/14 09:22:41;;;;;;;;;;;;;;;17.39;61.21;99000.23;1733977;83;20091;-73
2022/05/14 09:25:19;;;;;;;;;;;;;;;17.34;60.68;98993.61;1733719;83;20095;-73
2022/05/14 09:28:07;;;;;;;;;;;;;;;17.20;59.80;98997.00;1733863;82;21340;-73
2022/05/14 09:30:41;;;;;;;;;;;;;;;17.01;59.38;98995.70;1733159;83;20094;-71
2022/05/14 09:33:12;;;;;;;;;;;;;;;16.80;60.28;99000.31;1747618;82;20198;-73
2022/05/14 09:35:38;;;;;;;;;;;;;;;16.65;61.05;98997.91;1746993;82;20109;-72
2022/05/14 09:38:14;;;;;;;;;;;;;;;16.55;61.41;98999.88;1747423;82;20189;-73
2022/05/14 09:40:41;;;;;;;;;;;;;;;16.45;60.29;99006.81;1747445;81;21193;-72
2022/05/14 09:43:14;;;;;;;;;;;;;;;16.37;60.63;99003.70;1747191;82;20152;-73
2022/05/14 09:46:02;;;;;;;;;;;;;;;16.28;60.42;99003.71;1747327;82;20461;-72
2022/05/14 09:48:35;;;;;;;;;;;;;;;16.15;60.46;99005.28;1681738;83;20086;-72
2022/05/14 09:51:05;;;;;;;;;;;;;;;16.10;60.94;99008.34;1689023;85;20115;-72
2022/05/14 09:53:35;;;;;;;;;;;;;;;16.12;60.70;99007.98;1694123;84;21105;-72
2022/05/14 09:56:17;;;;;;;;;;;;;;;16.12;61.23;99006.59;1708961;82;20179;-73
2022/05/14 09:59:04;;;;;;;;;;;;;;;16.21;60.47;99008.53;1707952;83;20122;-75
2022/05/14 10:01:33;;;;;;;;;;;;;;;16.29;59.71;99008.88;1717038;83;20201;-76
2022/05/14 10:04:07;;;;;;;;;;;;;;;16.39;59.60;99015.80;1729698;83;20115;-76
2022/05/14 10:06:44;;;;;;;;;;;;;;;16.51;59.90;99010.89;1729361;82;21222;-74
2022/05/14 10:09:31;;;;;;;;;;;;;;;16.74;58.90;99012.91;1729375;83;20123;-74
2022/05/14 10:12:19;;;;;;;;;;;;;;;17.01;58.67;99007.60;1729141;83;20090;-76
2022/05/14 10:14:52;;;;;;;;;;;;;;;17.40;58.11;99007.38;1729410;83;20150;-75
2022/05/14 10:17:25;;;;;;;;;;;;;;;18.08;57.67;99011.88;1729365;83;20151;-75
2022/05/14 10:20:14;;;;;;;;;;;;;;;18.80;55.72;99003.91;1729326;83;21845;-72
2022/05/14 10:29:08;;;;;;;;;;;;;;;20.60;49.51;98986.36;1729072;83;20435;-73
2022/05/14 10:31:41;;;;;;;;;;;;;;;20.97;48.41;98979.78;1729903;83;20086;-74
2022/05/14 10:34:17;;;;;;;;;;;;;;;21.37;47.59;98974.36;1708538;83;21603;-76
2022/05/14 10:36:46;;;;;;;;;;;;;;;21.55;45.53;98977.13;1733924;81;20096;-74
2022/05/14 10:39:19;;;;;;;;;;;;;;;21.48;43.78;98972.95;1735517;82;20084;-73
2022/05/14 10:41:46;;;;;;;;;;;;;;;21.35;43.16;98974.59;1735223;82;20147;-75
2022/05/14 10:44:19;;;;;;;;;;;;;;;21.06;42.87;98975.99;1735404;82;20092;-75
2022/05/14 10:46:47;;;;;;;;;;;;;;;20.93;44.60;98972.01;1735355;82;20637;-76
2022/05/14 10:49:25;;;;;;;;;;;;;;;20.96;44.88;98969.81;1735676;82;20084;-80
2022/05/14 10:51:53;;;;;;;;;;;;;;;20.92;44.24;98957.86;1735599;82;20123;-75
2022/05/14 10:54:21;;;;;;;;;;;;;;;20.88;44.58;98961.25;1724122;82;20126;-90
2022/05/14 10:56:57;;;;;;;;;;;;;;;20.90;44.36;98965.83;1749934;82;20135;-76
2022/05/14 10:59:38;;;;;;;;;;;;;;;20.91;44.55;98966.03;1748575;82;21170;-77
2022/05/14 11:02:07;;;;;;;;;;;;;;;20.89;44.24;98966.23;1748708;82;20186;-77
2022/05/14 11:04:38;;;;;;;;;;;;;;;20.99;43.33;98964.03;1748267;80;20162;-75
2022/05/14 11:07:07;;;;;;;;;;;;;;;20.92;43.98;98959.85;1748777;82;20167;-76
2022/05/14 11:09:46;;;;;;;;;;;;;;;20.80;42.65;98951.28;1749677;80;20211;-79
2022/05/14 11:12:22;;;;;;;;;;;;;;;20.89;42.82;98957.86;1750095;82;21082;-76
2022/05/14 11:14:56;;;;;;;;;;;;;;;21.32;43.96;98948.87;1749808;82;20442;-78
2022/05/14 11:17:27;;;;;;;;;;;;;;;21.82;41.33;98948.11;1725161;82;20134;-76
2022/05/14 11:19:57;;;;;;;;;;;;;;;21.75;40.16;98953.12;1749767;82;20123;-79
2022/05/14 11:22:27;;;;;;;;;;;;;;;21.54;40.41;98960.17;1740375;82;20119;-79
2022/05/14 11:24:54;;;;;;;;;;;;;;;21.31;41.34;98951.47;1749942;82;21783;-79
2022/05/14 11:27:29;;;;;;;;;;;;;;;21.30;42.48;98950.68;1750038;80;20110;-77
2022/05/14 11:30:00;;;;;;;;;;;;;;;21.23;42.44;98937.33;1712229;82;20184;-77
2022/05/14 11:32:26;;;;;;;;;;;;;;;21.05;41.86;98947.09;1730920;82;20447;-79
2022/05/14 11:34:57;;;;;;;;;;;;;;;21.21;43.12;98949.47;1692567;85;20146;-84
2022/05/14 11:37:39;;;;;;;;;;;;;;;21.55;41.64;98949.20;1704062;84;21149;-82
2022/05/14 11:40:23;;;;;;;;;;;;;;;21.91;40.45;98947.67;1723042;82;20159;-79
2022/05/14 11:42:52;;;;;;;;;;;;;;;22.03;40.45;98956.40;1673015;85;20123;-74
2022/05/14 11:45:24;;;;;;;;;;;;;;;21.81;38.72;98953.50;1702595;83;20130;-84
2022/05/14 11:47:57;;;;;;;;;;;;;;;21.39;39.42;98960.80;1722948;82;20112;-79
2022/05/14 11:50:37;;;;;;;;;;;;;;;21.01;41.05;98965.23;1692927;84;21101;-79
2022/05/14 11:53:33;;;;;;;;;;;;;;;20.61;40.98;98965.64;1722918;83;20130;-80
2022/05/14 11:56:10;;;;;;;;;;;;;;;20.16;43.24;98966.54;1722727;83;20487;-78
2022/05/14 11:58:43;;;;;;;;;;;;;;;19.68;43.57;98973.70;1722290;83;20104;-77
2022/05/14 12:01:13;;;;;;;;;;;;;;;19.37;43.80;98977.90;1722364;83;20114;-77
2022/05/14 12:03:40;;;;;;;;;;;;;;;19.17;45.01;98971.59;1692443;85;21197;-77
2022/05/14 12:06:26;;;;;;;;;;;;;;;19.14;45.68;98964.82;1703825;84;20118;-77
2022/05/14 12:09:15;;;;;;;;;;;;;;;19.21;45.47;98966.85;1712662;83;20146;-77
2022/05/14 12:11:47;;;;;;;;;;;;;;;19.37;45.28;98961.20;1752843;82;20098;-79
2022/05/14 12:14:21;;;;;;;;;;;;;;;19.84;44.57;98957.27;1752794;82;20153;-78
2022/05/14 12:16:52;;;;;;;;;;;;;;;20.17;43.01;98948.63;1714946;83;21141;-77
2022/05/14 12:19:24;;;;;;;;;;;;;;;20.38;42.94;98941.71;1752517;80;20098;-79
2022/05/14 12:21:54;;;;;;;;;;;;;;;20.50;42.62;98942.52;1702174;82;20462;-77
2022/05/14 12:24:23;;;;;;;;;;;;;;;20.71;42.54;98944.73;1730257;82;20131;-77
2022/05/14 12:26:49;;;;;;;;;;;;;;;21.05;42.37;98947.09;1747865;82;20114;-77
2022/05/14 12:29:21;;;;;;;;;;;;;;;21.67;41.29;98940.98;1746561;81;21141;-83
2022/05/14 12:34:54;;;;;;;;;;;;;;;22.48;38.79;98941.77;1748031;81;20186;-76
2022/05/14 12:37:23;;;;;;;;;;;;;;;22.44;38.49;98929.81;1747915;82;20206;-76
2022/05/14 12:39:52;;;;;;;;;;;;;;;22.51;37.25;98934.75;1748075;81;20107;-77
2022/05/14 12:42:34;;;;;;;;;;;;;;;22.38;36.38;98928.05;1747977;82;21123;-77
2022/05/14 12:45:01;;;;;;;;;;;;;;;22.10;36.14;98934.61;1747881;82;20151;-76
2022/05/14 12:47:28;;;;;;;;;;;;;;;21.75;36.15;98932.17;1747943;81;20147;-77
2022/05/14 12:49:55;;;;;;;;;;;;;;;21.51;36.67;98933.05;1748188;81;20182;-77
2022/05/14 12:52:24;;;;;;;;;;;;;;;21.56;38.03;98929.84;1743448;82;20116;-76
2022/05/14 12:55:12;;;;;;;;;;;;;;;21.90;37.54;98937.09;1729089;82;21558;-76
2022/05/14 12:57:39;;;;;;;;;;;;;;;22.44;36.91;98927.02;1733014;82;20438;-78
2022/05/14 13:00:07;;;;;;;;;;;;;;;23.04;36.59;98928.73;1747889;81;20150;-76
2022/05/14 13:02:36;;;;;;;;;;;;;;;23.38;34.46;98935.77;1747853;82;20118;-77
2022/05/14 13:05:09;;;;;;;;;;;;;;;23.46;33.98;98926.67;1748333;82;20110;-76
2022/05/14 13:07:45;;;;;;;;;;;;;;;23.52;34.24;98927.02;1747962;80;21807;-77
2022/05/14 13:10:11;;;;;;;;;;;;;;;23.59;34.51;98929.77;1748274;82;20458;-77
2022/05/14 13:12:38;;;;;;;;;;;;;;;23.42;34.21;98934.32;1747989;82;20071;-76
2022/05/14 13:15:06;;;;;;;;;;;;;;;22.87;33.74;98935.88;1747851;82;20217;-77
2022/05/14 13:17:35;;;;;;;;;;;;;;;22.24;35.13;98932.33;1742646;81;20094;-77
2022/05/14 13:20:07;;;;;;;;;;;;;;;21.73;37.27;98937.96;1731150;80;21152;-78
2022/05/14 13:22:38;;;;;;;;;;;;;;;21.40;37.16;98940.66;1718043;83;20121;-74